SHLP weather

La Parva Heliport
Farellones, Santiago Metropolitan Region, Chile

Public forecast

Using degrees Celsius for public forecast. Weather courtesy of forecast.io.

METAR (pilot weather report)

Closest report is Eulogio Sánchez Airport, 15.3 nm (28.3 km) WSW. Retrieved 2019/07/18 18:00 UTC (59 minutes ago):

SCTB 181800Z VRB04KT 5000 HZ NSC 17/04 Q1022

TAF (pilot weather forecast)

Closest forecast is Comodoro Arturo Merino Benítez International Airport, 25.5 nm (47.2 km) W. Retrieved 2019/07/18 18:00 UTC (59 minutes ago):

TAF SCEL 181633Z 1818/1918 18008KT 8000 NSC TX17/1819Z TN01/1910Z BECMG 1901/1903 15004KT TEMPO 1908/1914 VRB02KT 5000 HZ BECMG 1915/1917 18005KT